• Join FlightAware (Why Join?)
  • Login
  • US Flag 
03:09AM EDT


 

Airport Tracker/Info


-or-


 

Live Flight TrackerFlight Track Log ✈ UAL252 ✈ 18-Jun-2013 ✈ KIAH - KDCA

Flight Track Log - Related Links

Times and Time Zones

All times are in EDT time to prevent confusion due to time zone crossing. See the UAL252 flight status page for this flight to view local times or setup timezone preferences in your user account.

Time Position Orientation Groundspeed Altitude Reporting Facility
EDT Latitude Longitude Course Direction KTS MPH feet Rate Location/Type
08:25PM 29.9906 -95.3594 349° North 163 188 800  Level Houston Center
08:27PM 30.0411 -95.3703 349° North 181 208 2,600 1,980 Climbing Houston Center
08:27PM 30.0867 -95.3767 353° North 241 277 4,300 3,180 Climbing Houston Center
08:28PM 30.1567 -95.3853 354° North 290 334 7,500 3,060 Climbing Houston Center
08:29PM 30.1828 -95.4017 332° Northwest 274 315 8,800 2,460 Climbing Houston Center
08:30PM 30.2506 -95.4503 328° Northwest 282 325 11,400 2,160 Climbing Houston Center
08:31PM 30.3322 -95.5086 328° Northwest 333 383 13,300 2,280 Climbing Houston Center
08:32PM 30.4361 -95.5811 329° Northwest 359 413 16,100 2,040 Climbing Houston Center
08:33PM 30.5258 -95.6453 328° Northwest 376 433 17,500 1,800 Climbing Houston Center
08:34PM 30.6219 -95.6981 335° Northwest 383 441 19,800 1,800 Climbing Houston Center
08:35PM 30.7147 -95.7483 335° Northwest 394 453 21,300 1,620 Climbing Houston Center
08:36PM 30.8400 -95.8150 335° Northwest 410 472 23,200 1,740 Climbing Houston Center
08:37PM 30.9494 -95.8731 336° Northwest 426 490 24,900 1,560 Climbing Houston Center
08:38PM 31.0594 -95.9317 335° Northwest 432 497 26,400 1,380 Climbing Houston Center
08:39PM 31.1722 -95.9867 337° Northwest 437 503 27,800 1,140 Climbing Houston Center
08:40PM 31.3008 -96.0019 354° North 467 537 28,800 900 Climbing Houston Center
08:41PM 31.4261 -95.9464 21° North 481 554 29,700 1,020 Climbing Houston Center
08:42PM 31.5514 -95.8864 22° Northeast 485 558 31,000 1,260 Climbing Houston Center
08:43PM 31.6794 -95.8261 22° Northeast 490 564 32,300 1,140 Climbing Houston Center
08:44PM 31.8069 -95.7669 22° Northeast 490 564 33,400 1,260 Climbing Houston Center
08:45PM 31.9614 -95.6969 21° North 492 566 35,000 780 Climbing Houston Center
08:46PM 32.0881 -95.6389 21° North 488 562 35,000  Level Houston Center
08:47PM 32.2158 -95.5808 21° North 488 562 35,000  Level Houston Center
08:48PM 32.3358 -95.5053 28° Northeast 494 568 35,000  Level Houston Center
08:49PM 32.4158 -95.3611 57° Northeast 463 533 35,000  Level Fort Worth Center
08:50PM 32.4906 -95.2139 59° Northeast 475 547 35,000  Level Fort Worth Center
08:51PM 32.5508 -95.0769 62° Northeast 485 558 35,000  Level Fort Worth Center
08:52PM 32.6192 -94.9347 60° Northeast 490 564 35,000  Level Fort Worth Center
08:53PM 32.6869 -94.7897 61° Northeast 490 564 35,000  Level Fort Worth Center
08:54PM 32.7572 -94.6492 59° Northeast 495 570 35,000  Level Fort Worth Center
08:55PM 32.8247 -94.5039 61° Northeast 495 570 35,000  Level Fort Worth Center
08:56PM 32.8944 -94.3581 60° Northeast 495 570 35,000  Level Fort Worth Center
08:57PM 32.9597 -94.2147 61° Northeast 490 564 35,000  Level Fort Worth Center
08:58PM 33.0269 -94.0686 61° Northeast 490 564 35,000  Level Fort Worth Center
08:59PM 33.0961 -93.9222 61° Northeast 495 570 35,000  Level Fort Worth Center
09:00PM 33.1725 -93.7553 61° Northeast 505 581 35,000  Level Fort Worth Center
09:01PM 33.2411 -93.6061 61° Northeast 510 587 35,000  Level Fort Worth Center
09:02PM 33.3119 -93.4589 60° Northeast 510 587 35,000  Level Fort Worth Center
09:03PM 33.3822 -93.3114 60° Northeast 510 587 35,000  Level Fort Worth Center
09:05PM 33.5075 -93.0378 61° Northeast 514 592 35,000  Level Memphis Center
09:06PM 33.5731 -92.8903 62° Northeast 509 586 35,100  Climbing Memphis Center
09:07PM 33.6428 -92.7403 61° Northeast 509 586 35,000 -60 Descending Memphis Center
09:08PM 33.7103 -92.5922 61° Northeast 509 586 35,000  Level Memphis Center
09:09PM 33.7778 -92.4414 62° Northeast 509 586 35,000  Level Memphis Center
09:10PM 33.8469 -92.2906 61° Northeast 509 586 35,000  Level Memphis Center
09:11PM 33.9139 -92.1419 61° Northeast 509 586 35,000  Level Memphis Center
09:12PM 33.9783 -91.9903 63° Northeast 509 586 35,100  Climbing Memphis Center
09:13PM 34.0472 -91.8386 61° Northeast 509 586 35,000 -60 Descending Memphis Center
09:14PM 34.1072 -91.6817 65° Northeast 509 586 35,000  Level Memphis Center
09:15PM 34.1756 -91.5322 61° Northeast 509 586 35,000  Level Memphis Center
09:16PM 34.2417 -91.3747 63° Northeast 515 593 35,000  Level Memphis Center
09:17PM 34.3075 -91.2222 62° Northeast 515 593 35,000  Level Memphis Center
09:18PM 34.3817 -91.0492 63° Northeast 509 586 35,100  Climbing Memphis Center
09:19PM 34.4492 -90.8961 62° Northeast 509 586 35,000 -60 Descending Memphis Center
09:20PM 34.5164 -90.7403 62° Northeast 509 586 35,000  Level Memphis Center
09:21PM 34.5814 -90.5867 63° Northeast 509 586 35,000  Level Memphis Center
09:22PM 34.6483 -90.4278 63° Northeast 509 586 35,000  Level Memphis Center
09:23PM 34.7153 -90.2736 62° Northeast 509 586 35,000  Level Memphis Center
09:24PM 34.7797 -90.1169 63° Northeast 509 586 35,000  Level Memphis Center
09:25PM 34.8461 -89.9650 62° Northeast 509 586 35,000  Level Memphis Center
09:26PM 34.9058 -89.7950 67° East 509 586 35,000  Level Memphis Center
09:27PM 34.9739 -89.6500 60° Northeast 533 613 35,000  Level Memphis Center
09:28PM 35.0417 -89.4819 64° Northeast 523 602 35,000  Level Memphis Center
09:29PM 35.1011 -89.3292 65° Northeast 503 579 35,000  Level Memphis Center
09:30PM 35.1644 -89.1758 63° Northeast 503 579 35,000  Level Memphis Center
09:31PM 35.2275 -89.0225 63° Northeast 503 579 35,000  Level Memphis Center
09:32PM 35.2903 -88.8614 64° Northeast 508 585 35,000  Level Memphis Center
09:33PM 35.3508 -88.7075 64° Northeast 508 585 35,000  Level Memphis Center
09:34PM 35.4156 -88.5508 63° Northeast 513 590 35,000  Level Memphis Center
09:35PM 35.4778 -88.3914 64° Northeast 513 590 35,000  Level Memphis Center
09:36PM 35.5397 -88.2342 64° Northeast 513 590 35,000  Level Memphis Center
09:37PM 35.5956 -88.0797 66° East 502 578 35,000  Level Memphis Center
09:38PM 35.6592 -87.9219 64° Northeast 507 583 35,000  Level Memphis Center
09:39PM 35.7225 -87.7589 64° Northeast 507 583 35,000  Level Memphis Center
09:40PM 35.7839 -87.6011 64° Northeast 514 592 35,000  Level Memphis Center
09:41PM 35.8469 -87.4375 65° Northeast 509 586 35,000  Level Memphis Center
09:42PM 35.9039 -87.2972 63° Northeast 509 586 35,000  Level Memphis Center
09:43PM 35.9644 -87.1333 65° Northeast 509 586 35,000  Level Memphis Center
09:44PM 36.0267 -86.9692 65° Northeast 509 586 35,000  Level Memphis Center
09:45PM 36.0889 -86.8022 65° Northeast 514 592 35,000  Level Memphis Center
09:46PM 36.1483 -86.6325 67° East 525 604 35,000  Level Memphis Center
09:47PM 36.2017 -86.4631 69° East 530 610 35,000  Level Memphis Center
09:49PM 36.2961 -86.1514 69° East 537 618 35,000  Level Indianapolis Center
09:50PM 36.3467 -85.9797 70° East 531 611 35,000  Level Indianapolis Center
09:51PM 36.4017 -85.8019 69° East 530 610 35,000  Level Indianapolis Center
09:52PM 36.4506 -85.6317 70° East 524 603 35,000  Level Indianapolis Center
09:53PM 36.5061 -85.4586 68° East 531 611 35,000  Level Indianapolis Center
09:54PM 36.5717 -85.2528 68° East 532 612 35,000  Level Indianapolis Center
09:55PM 36.6253 -85.0803 69° East 531 611 35,000  Level Indianapolis Center
09:56PM 36.6797 -84.9083 68° East 532 612 35,000  Level Indianapolis Center
09:57PM 36.7317 -84.7358 69° East 531 611 35,000  Level Indianapolis Center
09:58PM 36.7844 -84.5631 69° East 532 612 35,000  Level Indianapolis Center
09:59PM 36.8367 -84.3958 69° East 533 613 35,000  Level Indianapolis Center
10:00PM 36.8897 -84.2242 69° East 530 610 35,000  Level Indianapolis Center
10:01PM 36.9417 -84.0514 69° East 531 611 35,000  Level Indianapolis Center
10:02PM 36.9922 -83.8800 70° East 526 605 35,000  Level Indianapolis Center
10:03PM 37.0567 -83.6764 68° East 537 618 35,000  Level Indianapolis Center
10:04PM 37.1064 -83.5050 70° East 525 604 35,000  Level Indianapolis Center
10:05PM 37.1575 -83.3328 70° East 527 606 35,000  Level Indianapolis Center
10:06PM 37.2083 -83.1597 70° East 526 605 35,000  Level Indianapolis Center
10:07PM 37.2603 -82.9853 69° East 530 610 35,000  Level Indianapolis Center
10:08PM 37.3103 -82.8103 70° East 528 608 35,000  Level Indianapolis Center
10:09PM 37.3597 -82.6350 70° East 529 609 35,000  Level Indianapolis Center
10:11PM 37.4100 -82.4614 70° East 526 605 35,000  Level Indianapolis Center
10:12PM 37.4594 -82.2881 70° East 525 604 35,000  Level Indianapolis Center
10:13PM 37.5089 -82.1119 70° East 530 610 35,000  Level Indianapolis Center
10:14PM 37.5586 -81.9358 70° East 532 612 35,000  Level Indianapolis Center
10:15PM 37.6069 -81.7603 71° East 530 610 35,000  Level Indianapolis Center
10:16PM 37.6558 -81.5836 71° East 531 611 35,000  Level Indianapolis Center
10:17PM 37.7072 -81.3967 71° East 528 608 35,000  Level Indianapolis Center
10:18PM 37.7528 -81.2247 71° East 529 609 35,000  Level Indianapolis Center
10:19PM 37.8044 -81.0553 69° East 530 610 35,000  Level Indianapolis Center
10:20PM 37.8686 -80.8761 66° East 533 613 35,000  Level Indianapolis Center
10:21PM 37.9278 -80.7072 66° East 528 608 35,000  Level Indianapolis Center
10:22PM 37.9881 -80.5369 66° East 530 610 35,000  Level Indianapolis Center
10:23PM 38.0506 -80.3581 66° East 527 606 35,000  Level Indianapolis Center
10:24PM 38.1189 -80.1656 66° East 527 606 35,000 -540 Level Indianapolis Center
10:25PM 38.1797 -79.9925 66° East 530 610 34,000 -1,140 Descending Indianapolis Center
10:26PM 38.2406 -79.8242 65° Northeast 533 613 32,700 -1,380 Descending Indianapolis Center
10:27PM 38.2983 -79.6547 66° East 534 615 31,200 -1,440 Descending Indianapolis Center
10:28PM 38.3553 -79.4875 66° East 526 605 29,800 -1,620 Descending Indianapolis Center
10:29PM 38.4342 -79.2603 66° East 526 605 27,600 -1,500 Descending Washington Center
10:30PM 38.4622 -79.0892 78° East 510 587 26,400 -1,620 Descending Washington Center
10:31PM 38.4919 -78.9261 77° East 496 571 24,400 -2,160 Descending Washington Center
10:32PM 38.5150 -78.7678 79° East 472 543 22,200 -1,740 Descending Washington Center
10:33PM 38.5397 -78.6203 78° East 449 517 21,000 -1,320 Descending Washington Center
10:34PM 38.5619 -78.4697 79° East 429 494 19,600 -1,380 Descending Washington Center
10:35PM 38.5842 -78.3272 79° East 418 481 18,300 -1,380 Descending Washington Center
10:36PM 38.6164 -78.1956 73° East 405 466 16,900 -1,380 Descending Washington Center
10:37PM 38.6564 -78.0719 67° East 382 440 15,600 -1,260 Descending Washington Center
10:38PM 38.6922 -77.9561 68° East 367 422 14,400 -1,260 Descending Washington Center
10:39PM 38.7275 -77.8483 67° East 341 392 13,200 -1,200 Descending Washington Center
10:40PM 38.7769 -77.7644 53° Northeast 308 354 12,000 -1,200 Descending Washington Center
10:41PM 38.8286 -77.6808 52° Northeast 298 343 10,800 -1,260 Descending Washington Center
10:42PM 38.8636 -77.5858 65° Northeast 288 331 9,600 -1,200 Descending Washington Center
10:43PM 38.8833 -77.5333 64° Northeast 283 326 9,100 -1,140 Descending Potomac TRACON
10:44PM 38.9000 -77.4500 76° East 285 328 7,900 -1,200 Descending Potomac TRACON
10:45PM 38.8667 -77.3500 113° Southeast 285 328 6,700 -960 Descending Potomac TRACON
10:46PM 38.8333 -77.2667 117° Southeast 280 322 6,000 -1,020 Descending Potomac TRACON
10:47PM 38.7833 -77.1833 128° Southeast 274 315 4,700 -1,080 Descending Potomac TRACON
10:48PM 38.7500 -77.1167 123° Southeast 250 288 4,000 -420 Descending Potomac TRACON
10:49PM 38.7000 -77.0833 153° Southeast 210 242 3,900 -660 Descending Potomac TRACON
10:50PM 38.7167 -77.0500 57° Northeast 168 193 2,700 -960 Descending Potomac TRACON
10:51PM 38.7500 -77.0333 21° North 132 152 2,000 -660 Descending Potomac TRACON